createdAt,value
2019-05-22T00:00:20.844Z,51.30
2019-05-22T00:01:20.829Z,56.40
2019-05-22T00:02:20.803Z,56.40
2019-05-22T00:03:20.782Z,48.70
2019-05-22T00:04:20.763Z,56.30
2019-05-22T00:05:20.762Z,53.20
2019-05-22T00:06:20.722Z,50.80
2019-05-22T00:07:20.705Z,52.70
2019-05-22T00:08:20.684Z,47.20
2019-05-22T00:09:20.666Z,58.90
2019-05-22T00:10:20.645Z,54.40
2019-05-22T00:11:20.625Z,53.20
2019-05-22T00:12:20.700Z,49.20
2019-05-22T00:13:20.586Z,49.30
2019-05-22T00:14:20.619Z,51.10
2019-05-22T00:15:20.545Z,52.70
2019-05-22T00:16:20.526Z,54.10
2019-05-22T00:17:20.513Z,44.90
2019-05-22T00:18:20.486Z,53.10
2019-05-22T00:19:20.468Z,45.60
2019-05-22T00:20:20.449Z,41.40
2019-05-22T00:21:20.427Z,43.90
2019-05-22T00:22:20.405Z,46.10
2019-05-22T00:23:20.387Z,42.80
2019-05-22T00:24:20.369Z,41.50
2019-05-22T00:25:20.349Z,41.10
2019-05-22T00:26:20.377Z,41.30
2019-05-22T00:27:20.306Z,42.40
2019-05-22T00:28:20.286Z,40.90
2019-05-22T00:29:20.385Z,43.20
2019-05-22T00:30:20.247Z,41.10
2019-05-22T00:31:20.228Z,40.70
2019-05-22T00:32:20.207Z,40.80
2019-05-22T00:33:20.190Z,40.30
2019-05-22T00:34:20.174Z,41.80
2019-05-22T00:35:20.151Z,40.70
2019-05-22T00:36:20.128Z,38.70
2019-05-22T00:37:20.131Z,42.80
2019-05-22T00:38:20.095Z,41.00
2019-05-22T00:39:20.076Z,42.40
2019-05-22T00:40:20.052Z,40.10
2019-05-22T00:41:20.035Z,40.10
2019-05-22T00:42:20.008Z,41.30
2019-05-22T00:43:19.992Z,41.60
2019-05-22T00:44:19.970Z,39.90
2019-05-22T00:45:19.949Z,43.10
2019-05-22T00:46:19.937Z,39.40
2019-05-22T00:47:19.911Z,36.70
2019-05-22T00:48:19.897Z,42.70
2019-05-22T00:49:19.879Z,38.00
2019-05-22T00:50:19.859Z,35.40
2019-05-22T00:51:19.830Z,38.00
2019-05-22T00:52:19.810Z,37.60
2019-05-22T00:53:19.791Z,40.80
2019-05-22T00:54:19.771Z,35.40
2019-05-22T00:55:19.751Z,38.40
2019-05-22T00:56:19.736Z,35.20
2019-05-22T00:57:19.723Z,36.20
2019-05-22T00:58:19.698Z,34.30
2019-05-22T00:59:19.673Z,33.70
2019-05-22T01:00:19.660Z,36.30
2019-05-22T01:01:19.632Z,38.20
2019-05-22T01:02:19.611Z,34.70
2019-05-22T01:03:19.598Z,35.60
2019-05-22T01:04:19.574Z,39.30
2019-05-22T01:05:19.562Z,32.10
2019-05-22T01:06:19.539Z,35.00
2019-05-22T01:07:19.517Z,33.20
2019-05-22T01:08:19.502Z,36.50
2019-05-22T01:09:19.473Z,33.00
2019-05-22T01:10:19.452Z,39.50
2019-05-22T01:11:19.450Z,36.50
2019-05-22T01:12:19.414Z,33.80
2019-05-22T01:13:19.396Z,30.80
2019-05-22T01:14:19.371Z,34.00
2019-05-22T01:15:19.355Z,31.70
2019-05-22T01:16:19.339Z,28.80
2019-05-22T01:17:19.334Z,33.30
2019-05-22T01:18:19.290Z,31.80
2019-05-22T01:19:19.275Z,31.00
2019-05-22T01:20:19.251Z,31.30
2019-05-22T01:21:19.234Z,31.80
2019-05-22T01:22:19.211Z,34.40
2019-05-22T01:23:19.203Z,34.10
2019-05-22T01:24:19.173Z,32.60
2019-05-22T01:25:19.157Z,31.10
2019-05-22T01:26:19.145Z,26.80
2019-05-22T01:27:19.113Z,27.70
2019-05-22T01:28:19.094Z,28.70
2019-05-22T01:29:19.078Z,26.50
2019-05-22T01:30:19.055Z,28.40
2019-05-22T01:31:19.047Z,26.10
2019-05-22T01:32:19.013Z,28.50
2019-05-22T01:33:18.992Z,30.90
2019-05-22T01:34:18.971Z,28.10
2019-05-22T01:35:18.961Z,30.00
2019-05-22T01:36:18.936Z,26.60
2019-05-22T01:37:18.914Z,30.90
2019-05-22T01:38:18.895Z,26.50
2019-05-22T01:39:18.873Z,26.20
2019-05-22T01:40:18.855Z,30.10
2019-05-22T01:41:18.836Z,28.30
2019-05-22T01:42:18.815Z,30.10
2019-05-22T01:43:18.792Z,26.00
2019-05-22T01:44:18.775Z,28.40
2019-05-22T01:45:18.753Z,28.60
2019-05-22T01:46:18.742Z,25.00
2019-05-22T01:47:18.712Z,29.60
2019-05-22T01:48:18.695Z,25.80
2019-05-22T01:49:18.674Z,25.80
2019-05-22T01:50:18.651Z,25.60
2019-05-22T01:51:18.633Z,26.90
2019-05-22T01:52:18.620Z,28.70
2019-05-22T01:53:18.600Z,28.40
2019-05-22T01:54:18.584Z,26.00
2019-05-22T01:55:18.552Z,27.60
2019-05-22T01:56:18.531Z,27.30
2019-05-22T01:57:18.522Z,30.60
2019-05-22T01:58:18.509Z,25.80
2019-05-22T01:59:18.473Z,25.80
2019-05-22T02:00:18.451Z,27.10
2019-05-22T02:01:18.433Z,24.80
2019-05-22T02:02:18.413Z,28.60
2019-05-22T02:03:18.393Z,27.00
2019-05-22T02:04:18.374Z,29.30
2019-05-22T02:05:18.352Z,28.80
2019-05-22T02:06:18.333Z,27.30
2019-05-22T02:07:18.311Z,28.10
2019-05-22T02:08:18.292Z,25.50
2019-05-22T02:09:18.275Z,25.70
2019-05-22T02:10:18.253Z,26.30
2019-05-22T02:11:18.234Z,24.60
2019-05-22T02:12:18.213Z,25.50
2019-05-22T02:13:18.199Z,26.10
2019-05-22T02:14:18.383Z,24.00
2019-05-22T02:15:18.150Z,25.00
2019-05-22T02:16:18.131Z,26.90
2019-05-22T02:17:18.112Z,26.40
2019-05-22T02:18:18.099Z,28.20
2019-05-22T02:19:18.074Z,26.20
2019-05-22T02:20:18.053Z,26.90
2019-05-22T02:21:18.044Z,26.10
2019-05-22T02:22:18.010Z,27.40
2019-05-22T02:23:18.005Z,27.40
2019-05-22T02:24:17.971Z,25.60
2019-05-22T02:25:17.951Z,26.20
2019-05-22T02:26:17.929Z,25.40
2019-05-22T02:27:17.909Z,29.70
2019-05-22T02:28:17.891Z,25.40
2019-05-22T02:29:17.871Z,28.10
2019-05-22T02:30:17.856Z,26.90
2019-05-22T02:31:17.848Z,29.60
2019-05-22T02:32:17.810Z,24.80
2019-05-22T02:33:17.790Z,29.00
2019-05-22T02:34:17.769Z,26.60
2019-05-22T02:35:17.760Z,25.90
2019-05-22T02:36:17.732Z,24.70
2019-05-22T02:37:17.710Z,29.10
2019-05-22T02:38:17.688Z,24.90
2019-05-22T02:39:17.670Z,28.00
2019-05-22T02:40:17.648Z,30.00
2019-05-22T02:41:17.628Z,25.60
2019-05-22T02:42:17.609Z,25.80
2019-05-22T02:43:17.587Z,24.50
2019-05-22T02:44:17.580Z,25.10
2019-05-22T02:45:17.553Z,29.20
2019-05-22T02:46:17.526Z,25.70
2019-05-22T02:47:20.578Z,27.80
2019-05-22T02:48:17.494Z,24.00
2019-05-22T02:49:17.482Z,30.00
2019-05-22T02:50:17.450Z,25.80
2019-05-22T02:51:17.432Z,26.10
2019-05-22T02:52:17.409Z,23.60
2019-05-22T02:53:17.395Z,24.90
2019-05-22T02:54:17.366Z,27.90
2019-05-22T02:55:17.347Z,29.20
2019-05-22T02:56:17.329Z,26.80
2019-05-22T02:57:17.306Z,26.60
2019-05-22T02:58:17.287Z,25.70
2019-05-22T02:59:17.270Z,23.50
2019-05-22T03:00:17.247Z,23.50
2019-05-22T03:01:17.231Z,29.90
2019-05-22T03:02:17.214Z,26.10
2019-05-22T03:03:17.188Z,22.70
2019-05-22T03:04:17.174Z,24.70
2019-05-22T03:05:17.147Z,26.40
2019-05-22T03:06:17.126Z,25.50
2019-05-22T03:07:17.126Z,25.20
2019-05-22T03:08:17.095Z,28.30
2019-05-22T03:09:17.075Z,21.50
2019-05-22T03:10:17.043Z,21.00
2019-05-22T03:11:17.030Z,21.40
2019-05-22T03:12:17.009Z,19.90
2019-05-22T03:13:16.986Z,20.00
2019-05-22T03:14:16.963Z,16.30
2019-05-22T03:15:16.942Z,20.10
2019-05-22T03:16:16.931Z,18.00
2019-05-22T03:17:16.920Z,17.30
2019-05-22T03:18:16.881Z,21.50
2019-05-22T03:19:16.863Z,16.10
2019-05-22T03:20:16.844Z,17.60
2019-05-22T03:21:16.825Z,14.90
2019-05-22T03:22:16.817Z,16.20
2019-05-22T03:23:16.883Z,14.90
2019-05-22T03:24:16.764Z,13.70
2019-05-22T03:25:16.745Z,17.10
2019-05-22T03:26:16.728Z,14.30
2019-05-22T03:27:16.701Z,13.90
2019-05-22T03:28:16.737Z,14.10
2019-05-22T03:29:16.662Z,16.00
2019-05-22T03:30:16.639Z,13.80
2019-05-22T03:31:16.619Z,15.90
2019-05-22T03:32:16.605Z,12.20
2019-05-22T03:33:16.625Z,12.30
2019-05-22T03:34:16.558Z,13.80
2019-05-22T03:35:16.543Z,14.20
2019-05-22T03:36:16.517Z,12.70
2019-05-22T03:37:16.499Z,14.30
2019-05-22T03:38:16.476Z,14.80
2019-05-22T03:39:16.456Z,13.00
2019-05-22T03:40:16.437Z,15.20
2019-05-22T03:41:16.417Z,12.70
2019-05-22T03:42:16.395Z,13.70
2019-05-22T03:43:16.376Z,13.70
2019-05-22T03:44:16.357Z,13.60
2019-05-22T03:45:16.335Z,12.20
2019-05-22T03:46:16.315Z,10.70
2019-05-22T03:47:16.301Z,11.00
2019-05-22T03:48:16.286Z,12.60
2019-05-22T03:49:28.930Z,10.40
2019-05-22T03:50:16.241Z,11.10
2019-05-22T03:51:16.232Z,10.30
2019-05-22T03:52:16.199Z,11.00
2019-05-22T03:53:16.173Z,10.20
2019-05-22T03:54:16.153Z,12.60
2019-05-22T03:55:16.135Z,10.30
2019-05-22T03:56:16.120Z,12.10
2019-05-22T03:57:16.093Z,9.90
2019-05-22T03:58:16.073Z,10.50
2019-05-22T03:59:16.050Z,9.10
2019-05-22T04:00:16.030Z,9.20
2019-05-22T04:01:16.013Z,10.70
2019-05-22T04:02:15.991Z,9.70
2019-05-22T04:03:15.999Z,9.80
2019-05-22T04:04:15.956Z,11.50
2019-05-22T04:05:15.929Z,10.30
2019-05-22T04:06:15.907Z,9.20
2019-05-22T04:07:15.888Z,10.30
2019-05-22T04:08:15.866Z,9.40
2019-05-22T04:09:15.856Z,9.20
2019-05-22T04:10:15.827Z,8.60
2019-05-22T04:11:15.807Z,10.60
2019-05-22T04:12:15.790Z,8.50
2019-05-22T04:13:15.770Z,10.70
2019-05-22T04:14:15.744Z,9.30
2019-05-22T04:15:15.724Z,9.30
2019-05-22T04:16:15.706Z,7.80
2019-05-22T04:17:15.686Z,12.80
2019-05-22T04:18:15.672Z,9.90
2019-05-22T04:19:15.648Z,9.60
2019-05-22T04:20:15.627Z,10.50
2019-05-22T04:21:15.604Z,11.80
2019-05-22T04:22:15.583Z,9.50
2019-05-22T04:23:15.563Z,9.50
2019-05-22T04:24:15.543Z,9.10
2019-05-22T04:25:15.526Z,10.80
2019-05-22T04:26:15.500Z,10.80
2019-05-22T04:27:15.481Z,9.90
2019-05-22T04:28:15.467Z,9.40
2019-05-22T04:29:15.441Z,10.20
2019-05-22T04:30:15.428Z,11.10
2019-05-22T04:31:15.408Z,10.60
2019-05-22T04:32:15.387Z,9.50
2019-05-22T04:33:15.359Z,11.40
2019-05-22T04:34:15.338Z,9.80
2019-05-22T04:35:15.317Z,9.10
2019-05-22T04:36:15.314Z,10.00
2019-05-22T04:37:15.277Z,10.40
2019-05-22T04:38:15.257Z,11.50
2019-05-22T04:39:15.236Z,9.00
2019-05-22T04:40:15.226Z,10.10
2019-05-22T04:41:15.197Z,9.70
2019-05-22T04:42:15.176Z,10.40
2019-05-22T04:43:15.164Z,9.30
2019-05-22T04:44:15.134Z,11.00
2019-05-22T04:45:15.128Z,12.30
2019-05-22T04:46:15.093Z,10.90
2019-05-22T04:47:15.079Z,10.60
2019-05-22T04:48:15.067Z,10.80
2019-05-22T04:49:15.034Z,11.20
2019-05-22T04:50:15.013Z,11.70
2019-05-22T04:51:15.012Z,15.20
2019-05-22T04:52:14.981Z,12.60
2019-05-22T04:53:14.952Z,14.90
2019-05-22T04:54:14.943Z,14.30
2019-05-22T04:55:14.911Z,10.40
2019-05-22T04:56:14.894Z,11.90
2019-05-22T04:57:14.873Z,11.80
2019-05-22T04:58:14.854Z,11.00
2019-05-22T04:59:14.830Z,12.80
2019-05-22T05:00:14.811Z,12.10
2019-05-22T05:01:14.789Z,11.70
2019-05-22T05:02:14.767Z,11.10
2019-05-22T05:03:14.751Z,10.40
2019-05-22T05:04:14.733Z,9.70
2019-05-22T05:05:14.713Z,14.60
2019-05-22T05:06:14.690Z,11.20
2019-05-22T05:07:14.678Z,11.30
2019-05-22T05:08:14.659Z,13.00
2019-05-22T05:09:14.630Z,10.80
2019-05-22T05:10:14.621Z,12.20
2019-05-22T05:11:14.585Z,15.20
2019-05-22T05:12:14.565Z,12.70
2019-05-22T05:13:14.557Z,11.50
2019-05-22T05:14:14.529Z,12.30
2019-05-22T05:15:14.503Z,15.60
2019-05-22T05:16:14.484Z,12.40
2019-05-22T05:17:14.463Z,11.50
2019-05-22T05:18:14.443Z,13.60
2019-05-22T05:19:14.423Z,14.00
2019-05-22T05:20:22.231Z,11.70
2019-05-22T05:21:14.393Z,12.40
2019-05-22T05:22:14.371Z,14.40
2019-05-22T05:23:14.340Z,16.10
2019-05-22T05:24:14.321Z,12.00
2019-05-22T05:25:14.312Z,12.40
2019-05-22T05:26:14.278Z,15.50
2019-05-22T05:27:14.260Z,15.10
2019-05-22T05:28:14.260Z,11.80
2019-05-22T05:29:14.219Z,11.30
2019-05-22T05:30:14.197Z,13.00
2019-05-22T05:31:14.186Z,12.70
2019-05-22T05:32:14.166Z,12.90
2019-05-22T05:33:14.139Z,14.60
2019-05-22T05:34:14.127Z,15.40
2019-05-22T05:35:14.106Z,14.10
2019-05-22T05:36:14.077Z,13.80
2019-05-22T05:37:14.090Z,18.20
2019-05-22T05:38:14.034Z,13.60
2019-05-22T05:39:14.016Z,15.10
2019-05-22T05:40:13.994Z,22.20
2019-05-22T05:41:13.974Z,21.10
2019-05-22T05:42:13.954Z,17.20
2019-05-22T05:43:13.952Z,15.90
2019-05-22T05:44:13.922Z,18.30
2019-05-22T05:45:13.975Z,15.40
2019-05-22T05:46:13.873Z,16.20
2019-05-22T05:47:13.862Z,13.70
2019-05-22T05:48:13.851Z,14.80
2019-05-22T05:49:13.813Z,12.90
2019-05-22T05:50:13.801Z,12.10
2019-05-22T05:51:13.792Z,10.60
2019-05-22T05:52:13.752Z,15.50
2019-05-22T05:53:13.744Z,12.40
2019-05-22T05:54:13.712Z,12.90
2019-05-22T05:55:13.693Z,12.00
2019-05-22T05:56:13.692Z,14.00
2019-05-22T05:57:13.653Z,15.50
2019-05-22T05:58:13.632Z,11.90
2019-05-22T05:59:13.613Z,16.90
2019-05-22T06:00:13.601Z,13.10
2019-05-22T06:01:13.570Z,11.80
2019-05-22T06:02:13.551Z,12.40
2019-05-22T06:03:13.533Z,16.20
2019-05-22T06:04:13.511Z,14.10
2019-05-22T06:05:13.541Z,10.90
2019-05-22T06:06:13.472Z,12.40
2019-05-22T06:07:13.472Z,15.60
2019-05-22T06:08:13.428Z,11.90
2019-05-22T06:09:13.409Z,11.10
2019-05-22T06:10:13.387Z,10.70
2019-05-22T06:11:13.366Z,11.40
2019-05-22T06:12:13.346Z,9.40
2019-05-22T06:13:13.336Z,11.00
2019-05-22T06:14:13.311Z,13.70
2019-05-22T06:15:13.291Z,11.40
2019-05-22T06:16:13.266Z,10.50
2019-05-22T06:17:13.248Z,11.70
2019-05-22T06:18:13.225Z,9.40
2019-05-22T06:19:13.206Z,12.60
2019-05-22T06:20:13.195Z,12.70
2019-05-22T06:21:13.165Z,10.20
2019-05-22T06:22:13.152Z,10.00
2019-05-22T06:23:13.124Z,7.80
2019-05-22T06:24:13.106Z,10.70
2019-05-22T06:25:13.091Z,11.80
2019-05-22T06:26:13.066Z,9.60
2019-05-22T06:27:13.053Z,11.60
2019-05-22T06:28:13.031Z,9.00
2019-05-22T06:29:13.007Z,11.20
2019-05-22T06:30:12.987Z,10.00
2019-05-22T06:31:12.967Z,13.20
2019-05-22T06:32:12.951Z,8.90
2019-05-22T06:33:12.932Z,12.10
2019-05-22T06:34:12.905Z,9.90
2019-05-22T06:35:12.886Z,14.40
2019-05-22T06:36:12.885Z,13.40
2019-05-22T06:37:12.849Z,15.70
2019-05-22T06:38:12.827Z,11.20
2019-05-22T06:39:12.808Z,10.60
2019-05-22T06:40:12.793Z,12.50
2019-05-22T06:41:12.776Z,11.00
2019-05-22T06:42:12.759Z,11.00
2019-05-22T06:43:12.736Z,8.70
2019-05-22T06:44:12.715Z,14.40
2019-05-22T06:45:12.705Z,9.80
2019-05-22T06:46:12.669Z,10.60
2019-05-22T06:47:12.650Z,12.60
2019-05-22T06:48:12.633Z,15.50
2019-05-22T06:49:12.630Z,10.80
2019-05-22T06:50:12.597Z,9.40
2019-05-22T06:51:19.575Z,11.00
2019-05-22T06:52:12.559Z,9.00
2019-05-22T06:53:12.542Z,10.90
2019-05-22T06:54:12.515Z,10.50
2019-05-22T06:55:12.494Z,10.00
2019-05-22T06:56:12.478Z,13.30
2019-05-22T06:57:12.453Z,12.50
2019-05-22T06:58:12.435Z,11.00
2019-05-22T06:59:12.414Z,25.40
2019-05-22T07:00:15.019Z,14.90
2019-05-22T07:01:12.394Z,8.80
2019-05-22T07:02:12.363Z,8.20
2019-05-22T07:03:12.338Z,10.90
2019-05-22T07:04:12.321Z,12.40
2019-05-22T07:05:12.296Z,12.20
2019-05-22T07:06:12.286Z,11.90
2019-05-22T07:07:12.533Z,13.30
2019-05-22T07:08:12.240Z,13.90
2019-05-22T07:09:12.229Z,11.80
2019-05-22T07:10:12.206Z,16.00
2019-05-22T07:11:12.180Z,13.00
2019-05-22T07:12:12.175Z,9.70
2019-05-22T07:13:12.158Z,13.20
2019-05-22T07:14:12.132Z,15.70
2019-05-22T07:15:12.137Z,21.20
2019-05-22T07:16:12.076Z,8.90
2019-05-22T07:17:12.060Z,16.50
2019-05-22T07:18:13.103Z,14.30
2019-05-22T07:19:12.021Z,10.40
2019-05-22T07:20:11.998Z,16.80
2019-05-22T07:21:11.986Z,17.00
2019-05-22T07:22:11.975Z,12.80
2019-05-22T07:23:11.976Z,13.40
2019-05-22T07:24:11.918Z,11.10
2019-05-22T07:25:11.901Z,12.40
2019-05-22T07:26:11.896Z,12.90
2019-05-22T07:27:11.861Z,11.70
2019-05-22T07:28:11.848Z,13.60
2019-05-22T07:29:11.821Z,10.20
2019-05-22T07:30:11.801Z,13.70
2019-05-22T07:31:11.788Z,11.80
2019-05-22T07:32:11.777Z,13.20
2019-05-22T07:33:11.757Z,12.10
2019-05-22T07:34:11.720Z,12.90
2019-05-22T07:35:11.704Z,12.50
2019-05-22T07:36:16.352Z,11.60
2019-05-22T07:37:11.668Z,11.30
2019-05-22T07:38:11.641Z,13.60
2019-05-22T07:39:11.626Z,13.80
2019-05-22T07:40:11.609Z,11.30
2019-05-22T07:41:11.612Z,11.50
2019-05-22T07:42:11.564Z,10.40
2019-05-22T07:43:11.543Z,13.00
2019-05-22T07:44:11.525Z,11.10
2019-05-22T07:45:11.503Z,13.40
2019-05-22T07:46:11.508Z,10.60
2019-05-22T07:47:11.472Z,11.80
2019-05-22T07:48:11.467Z,11.80
2019-05-22T07:49:11.433Z,11.70
2019-05-22T07:50:11.404Z,10.60
2019-05-22T07:51:11.392Z,11.10
2019-05-22T07:52:11.366Z,10.10
2019-05-22T07:53:11.345Z,12.70
2019-05-22T07:54:11.327Z,12.00
2019-05-22T07:55:11.314Z,11.30
2019-05-22T07:56:11.332Z,11.20
2019-05-22T07:57:11.266Z,10.70
2019-05-22T07:58:11.249Z,14.60
2019-05-22T07:59:11.233Z,10.50
2019-05-22T08:00:11.232Z,14.50
2019-05-22T08:01:11.203Z,10.00
2019-05-22T08:02:11.373Z,12.70
2019-05-22T08:03:11.152Z,11.00
2019-05-22T08:04:11.146Z,10.50
2019-05-22T08:05:11.112Z,12.60
2019-05-22T08:06:11.094Z,12.20
2019-05-22T08:07:11.078Z,9.80
2019-05-22T08:08:11.058Z,11.30
2019-05-22T08:09:11.035Z,10.00
2019-05-22T08:10:11.021Z,9.80
2019-05-22T08:11:10.997Z,8.80
2019-05-22T08:12:10.989Z,9.90
2019-05-22T08:13:10.956Z,9.70
2019-05-22T08:14:10.947Z,12.50
2019-05-22T08:15:10.928Z,8.50
2019-05-22T08:16:10.923Z,9.40
2019-05-22T08:17:10.883Z,9.20
2019-05-22T08:18:10.856Z,8.10
2019-05-22T08:19:10.837Z,10.60
2019-05-22T08:20:10.817Z,6.40
2019-05-22T08:21:10.797Z,9.10
2019-05-22T08:22:10.778Z,7.00
2019-05-22T08:23:10.763Z,10.00
2019-05-22T08:24:10.744Z,10.90
2019-05-22T08:25:10.722Z,11.10
2019-05-22T08:26:10.711Z,6.30
2019-05-22T08:27:10.690Z,7.50
2019-05-22T08:28:10.663Z,10.50
2019-05-22T08:29:10.645Z,7.80
2019-05-22T08:30:10.648Z,9.50
2019-05-22T08:31:10.605Z,7.90
2019-05-22T08:32:10.588Z,9.40
2019-05-22T08:33:10.567Z,9.50
2019-05-22T08:34:10.551Z,8.40
2019-05-22T08:35:10.538Z,9.50
2019-05-22T08:36:10.521Z,8.20
2019-05-22T08:37:10.508Z,8.70
2019-05-22T08:38:10.476Z,8.40
2019-05-22T08:39:10.467Z,8.50
2019-05-22T08:40:10.439Z,9.30
2019-05-22T08:41:10.417Z,9.70
2019-05-22T08:42:10.400Z,7.40
2019-05-22T08:43:10.377Z,12.00
2019-05-22T08:44:16.763Z,9.80
2019-05-22T08:45:10.351Z,10.50
2019-05-22T08:46:10.337Z,10.40
2019-05-22T08:47:10.312Z,8.70
2019-05-22T08:48:10.287Z,8.90
2019-05-22T08:49:10.337Z,7.90
2019-05-22T08:50:10.246Z,8.80
2019-05-22T08:51:10.227Z,10.60
2019-05-22T08:52:22.451Z,9.00
2019-05-22T08:53:10.193Z,9.30
2019-05-22T08:54:10.179Z,11.20
2019-05-22T08:55:10.158Z,12.10
2019-05-22T08:56:10.150Z,12.40
2019-05-22T08:57:10.119Z,9.70
2019-05-22T08:58:10.112Z,11.20
2019-05-22T08:59:19.599Z,13.50
2019-05-22T09:00:12.490Z,9.50
2019-05-22T09:01:10.048Z,12.80
2019-05-22T09:02:10.061Z,13.80
2019-05-22T09:03:10.014Z,9.50
2019-05-22T09:04:09.987Z,11.20
2019-05-22T09:05:10.036Z,15.70
2019-05-22T09:06:09.961Z,13.10
2019-05-22T09:07:09.941Z,11.30
2019-05-22T09:08:09.919Z,10.50
2019-05-22T09:09:09.908Z,13.60
2019-05-22T09:10:09.889Z,13.80
2019-05-22T09:11:09.863Z,11.40
2019-05-22T09:12:09.840Z,11.20
2019-05-22T09:13:09.831Z,9.70
2019-05-22T09:14:09.799Z,11.20
2019-05-22T09:15:09.779Z,9.20
2019-05-22T09:16:09.769Z,16.00
2019-05-22T09:17:09.763Z,10.10
2019-05-22T09:18:09.729Z,12.10
2019-05-22T09:19:09.777Z,12.10
2019-05-22T09:20:09.707Z,10.00
2019-05-22T09:21:09.675Z,10.50
2019-05-22T09:22:09.726Z,10.70
2019-05-22T09:23:09.700Z,14.50
2019-05-22T09:24:09.612Z,9.30
2019-05-22T09:25:09.604Z,10.30
2019-05-22T09:26:09.575Z,9.60
2019-05-22T09:27:09.556Z,9.20
2019-05-22T09:28:09.547Z,9.00
2019-05-22T09:29:09.521Z,9.20
2019-05-22T09:30:09.514Z,8.70
2019-05-22T09:31:09.490Z,8.70
2019-05-22T09:32:09.652Z,12.30
2019-05-22T09:33:09.453Z,8.10
2019-05-22T09:34:09.441Z,7.70
2019-05-22T09:35:09.416Z,10.40
2019-05-22T09:36:09.416Z,6.20
2019-05-22T09:37:09.375Z,11.00
2019-05-22T09:38:09.359Z,8.10
2019-05-22T09:39:09.340Z,9.70
2019-05-22T09:40:09.322Z,8.50
2019-05-22T09:41:09.317Z,9.00
2019-05-22T09:42:09.288Z,9.20
2019-05-22T09:43:09.283Z,8.20
2019-05-22T09:44:09.254Z,7.90
2019-05-22T09:45:09.234Z,10.80
2019-05-22T09:46:09.214Z,11.30
2019-05-22T09:47:09.192Z,6.50
2019-05-22T09:48:09.177Z,8.00
2019-05-22T09:49:09.157Z,8.80
2019-05-22T09:50:09.146Z,9.90
2019-05-22T09:51:09.131Z,8.40
2019-05-22T09:52:09.110Z,7.50
2019-05-22T09:53:09.117Z,9.80
2019-05-22T09:54:09.070Z,10.00
2019-05-22T09:55:09.088Z,8.50
2019-05-22T09:56:09.034Z,8.10
2019-05-22T09:57:09.027Z,8.00
2019-05-22T09:58:09.010Z,9.10
2019-05-22T09:59:08.988Z,8.00
2019-05-22T10:00:08.969Z,8.80
2019-05-22T10:01:11.735Z,9.40
2019-05-22T10:02:08.926Z,8.00
2019-05-22T10:03:08.918Z,7.40
2019-05-22T10:04:08.907Z,7.90
2019-05-22T10:05:08.877Z,6.70
2019-05-22T10:06:09.079Z,10.50
2019-05-22T10:07:08.840Z,8.10
2019-05-22T10:08:08.843Z,6.10
2019-05-22T10:09:08.805Z,8.70
2019-05-22T10:10:08.792Z,8.10
2019-05-22T10:11:08.837Z,6.80
2019-05-22T10:12:08.755Z,8.40
2019-05-22T10:13:08.753Z,9.90
2019-05-22T10:14:08.743Z,9.30
2019-05-22T10:15:09.090Z,7.90
2019-05-22T10:16:08.693Z,7.50
2019-05-22T10:17:08.673Z,8.40
2019-05-22T10:18:08.654Z,5.90
2019-05-22T10:19:08.638Z,7.60
2019-05-22T10:20:08.622Z,7.90
2019-05-22T10:21:08.626Z,9.90
2019-05-22T10:22:08.587Z,9.40
2019-05-22T10:23:15.305Z,7.10
2019-05-22T10:24:08.559Z,6.90
2019-05-22T10:25:15.607Z,6.60
2019-05-22T10:26:08.529Z,7.60
2019-05-22T10:27:08.511Z,11.70
2019-05-22T10:28:11.117Z,9.80
2019-05-22T10:29:08.480Z,8.50
2019-05-22T10:30:11.292Z,9.50
2019-05-22T10:31:09.528Z,10.50
2019-05-22T10:32:08.435Z,8.00
2019-05-22T10:33:08.623Z,7.70
2019-05-22T10:34:08.405Z,8.50
2019-05-22T10:35:09.807Z,8.40
2019-05-22T10:36:08.380Z,7.90
2019-05-22T10:37:08.437Z,6.10
2019-05-22T10:38:08.349Z,9.80
2019-05-22T10:39:08.338Z,8.70
2019-05-22T10:40:08.337Z,7.90
2019-05-22T10:41:08.310Z,11.50
2019-05-22T10:42:08.299Z,11.20
2019-05-22T10:43:08.292Z,6.90
2019-05-22T10:44:08.286Z,7.10
2019-05-22T10:45:08.263Z,8.40
2019-05-22T10:46:08.394Z,8.90
2019-05-22T10:47:08.243Z,8.00
2019-05-22T10:48:08.241Z,8.40
2019-05-22T10:49:08.228Z,6.80
2019-05-22T10:50:08.213Z,6.90
2019-05-22T10:51:08.203Z,8.10
2019-05-22T10:52:08.200Z,10.40
2019-05-22T10:53:08.182Z,7.60
2019-05-22T10:54:08.172Z,7.40
2019-05-22T10:55:08.172Z,8.00
2019-05-22T10:56:08.370Z,7.30
2019-05-22T10:57:08.153Z,6.80
2019-05-22T10:58:08.269Z,6.90
2019-05-22T10:59:08.145Z,8.60
2019-05-22T11:00:08.132Z,6.30
2019-05-22T11:01:08.115Z,9.20
2019-05-22T11:02:08.123Z,6.70
2019-05-22T11:03:08.101Z,9.30
2019-05-22T11:04:08.090Z,7.00
2019-05-22T11:05:08.081Z,8.10
2019-05-22T11:06:08.192Z,8.80
2019-05-22T11:07:08.071Z,8.80
2019-05-22T11:08:08.075Z,8.70
2019-05-22T11:09:08.048Z,9.00
2019-05-22T11:10:08.048Z,8.30
2019-05-22T11:11:08.033Z,7.90
2019-05-22T11:12:08.023Z,8.10
2019-05-22T11:13:08.016Z,10.40
2019-05-22T11:14:09.625Z,9.10
2019-05-22T11:15:08.022Z,7.80
2019-05-22T11:16:07.999Z,9.50
2019-05-22T11:17:07.984Z,9.50
2019-05-22T11:18:07.976Z,9.10
2019-05-22T11:19:07.988Z,10.00
2019-05-22T11:20:07.957Z,10.00
2019-05-22T11:21:07.952Z,11.00
2019-05-22T11:22:07.948Z,13.30
2019-05-22T11:23:07.948Z,7.90
2019-05-22T11:24:07.931Z,6.80
2019-05-22T11:25:07.923Z,10.00
2019-05-22T11:26:07.918Z,9.50
2019-05-22T11:27:07.908Z,9.40
2019-05-22T11:28:07.911Z,8.60
2019-05-22T11:29:07.905Z,9.30
2019-05-22T11:30:07.902Z,7.50
2019-05-22T11:31:07.885Z,9.60
2019-05-22T11:32:07.885Z,8.20
2019-05-22T11:33:07.873Z,9.10
2019-05-22T11:34:07.873Z,9.10
2019-05-22T11:35:07.874Z,8.70
2019-05-22T11:36:07.858Z,7.40
2019-05-22T11:37:07.864Z,9.80
2019-05-22T11:38:07.840Z,10.10
2019-05-22T11:39:07.832Z,8.90
2019-05-22T11:40:07.824Z,8.30
2019-05-22T11:41:07.815Z,7.50
2019-05-22T11:42:07.825Z,11.30
2019-05-22T11:43:07.800Z,10.10
2019-05-22T11:44:07.793Z,10.00
2019-05-22T11:45:07.789Z,10.00
2019-05-22T11:46:07.776Z,8.40
2019-05-22T11:47:07.775Z,10.70
2019-05-22T11:48:07.764Z,9.00
2019-05-22T11:49:07.746Z,9.20
2019-05-22T11:50:07.740Z,7.50
2019-05-22T11:51:07.734Z,12.40
2019-05-22T11:52:07.726Z,9.40
2019-05-22T11:53:07.705Z,9.90
2019-05-22T11:54:09.541Z,11.70
2019-05-22T11:55:07.685Z,9.90
2019-05-22T11:56:07.685Z,9.30
2019-05-22T11:57:07.666Z,8.60
2019-05-22T11:58:07.655Z,8.50
2019-05-22T11:59:07.642Z,10.90
2019-05-22T12:00:09.299Z,7.40
2019-05-22T12:01:07.626Z,7.70
2019-05-22T12:02:07.664Z,10.40
2019-05-22T12:03:07.604Z,8.70
2019-05-22T12:04:07.589Z,6.80
2019-05-22T12:05:07.571Z,7.90
2019-05-22T12:06:07.559Z,12.90
2019-05-22T12:07:07.559Z,7.40
2019-05-22T12:08:07.553Z,8.60
2019-05-22T12:09:07.536Z,7.40
2019-05-22T12:10:07.508Z,9.30
2019-05-22T12:11:07.502Z,8.10
2019-05-22T12:12:07.493Z,7.90
2019-05-22T12:13:07.476Z,7.60
2019-05-22T12:14:07.468Z,8.30
2019-05-22T12:15:07.441Z,9.10
2019-05-22T12:16:07.453Z,6.80
2019-05-22T12:17:07.413Z,8.40
2019-05-22T12:18:07.419Z,9.70
2019-05-22T12:19:07.408Z,8.20
2019-05-22T12:20:07.379Z,6.90
2019-05-22T12:21:07.363Z,9.20
2019-05-22T12:22:07.361Z,8.10
2019-05-22T12:23:07.339Z,8.50
2019-05-22T12:24:07.316Z,8.50
2019-05-22T12:25:07.304Z,8.50
2019-05-22T12:26:07.289Z,8.30
2019-05-22T12:27:07.442Z,7.90
2019-05-22T12:28:07.261Z,9.10
2019-05-22T12:29:07.253Z,9.00
2019-05-22T12:30:07.238Z,6.90
2019-05-22T12:31:07.235Z,8.00
2019-05-22T12:32:07.210Z,6.30
2019-05-22T12:33:13.363Z,6.80
2019-05-22T12:34:07.177Z,6.80
2019-05-22T12:35:07.219Z,6.70
2019-05-22T12:36:07.159Z,7.60
2019-05-22T12:37:07.139Z,9.20
2019-05-22T12:38:07.169Z,8.30
2019-05-22T12:39:07.122Z,6.60
2019-05-22T12:40:07.093Z,6.20
2019-05-22T12:41:07.077Z,6.20
2019-05-22T12:42:07.066Z,7.60
2019-05-22T12:43:07.050Z,7.20
2019-05-22T12:44:07.040Z,7.30
2019-05-22T12:45:07.033Z,9.00
2019-05-22T12:46:07.009Z,7.80
2019-05-22T12:47:06.995Z,6.20
2019-05-22T12:48:06.983Z,5.40
2019-05-22T12:49:09.033Z,7.90
2019-05-22T12:50:06.969Z,5.90
2019-05-22T12:51:06.934Z,6.80
2019-05-22T12:52:06.923Z,9.10
2019-05-22T12:53:06.913Z,9.60
2019-05-22T12:54:06.897Z,9.30
2019-05-22T12:55:06.888Z,6.10
2019-05-22T12:56:06.865Z,6.40
2019-05-22T12:57:06.865Z,7.30
2019-05-22T12:58:06.844Z,7.50
2019-05-22T12:59:06.837Z,9.70
2019-05-22T13:00:06.811Z,8.80
2019-05-22T13:01:06.791Z,6.30